Latest Weather Observations for Williamson

IDQ60801

Issued at 8:02 pm EST Saturday 1 October 2016 (issued every 30 minutes, with the page automatically refreshed every 10 minutes)

About weather observations | Map of weather stations | Latest weather observations for QLD | Other Formats
Station Details ID: 033195 Name: WILLIAMSON Lat: -22.47 Lon: 150.18 Height: 27.6 m
Data from the previous 72 hours. | See also: Recent months at Williamson
Date/Time
EST
Temp
°C
App
Temp
°C
Dew
Point
°C
Rel
Hum
%
Delta-T
°C
Wind Press
QNH
hPa
Press
MSL
hPa
Rain since
9am
mm
Dir  Spd
km/h
Gust
km/h
Spd
kts
Gust
kts
01/08:00pm 18.3 18.2 13.4 73 2.8 ENE 6 7 3 4 1014.7 1014.6 0.0
01/07:30pm 19.9 19.8 13.8 68 3.5 ENE 7 9 4 5 1014.3 1014.2 0.0
01/07:00pm 21.2 21.2 14.1 64 4.1 ENE 7 9 4 5 1014.0 1013.9 0.0
01/06:30pm 21.9 22.0 14.0 61 4.6 NE 6 7 3 4 1013.8 1013.7 0.0
01/06:00pm 23.5 23.1 14.2 56 5.5 NE 9 13 5 7 1013.4 1013.3 0.0
01/05:30pm 25.1 24.4 13.3 48 6.9 NE 9 13 5 7 1013.0 1012.9 0.0
01/05:00pm 26.6 25.3 12.6 42 8.1 NE 11 17 6 9 1012.7 1012.6 0.0
01/04:30pm 30.2 26.2 -2.3 12 14.9 SW 9 17 5 9 1012.4 1012.3 0.0
01/04:00pm 30.2 24.7 -2.3 12 14.9 W 17 28 9 15 1012.3 1012.2 0.0
01/03:30pm 30.6 26.8 -0.9 13 14.9 WNW 9 20 5 11 1012.4 1012.3 0.0
01/03:00pm 30.6 26.2 0.1 14 14.7 SW 13 20 7 11 1012.4 1012.3 0.0
01/02:30pm 30.6 25.4 0.1 14 14.7 WNW 17 26 9 14 1012.6 1012.5 0.0
01/02:00pm 30.6 26.0 -0.9 13 14.9 WSW 13 24 7 13 1013.0 1012.9 0.0
01/01:30pm 30.1 25.1 -1.3 13 14.7 WNW 15 26 8 14 1013.3 1013.2 0.0
01/01:00pm 29.5 24.8 -1.8 13 14.4 W 13 22 7 12 1013.7 1013.6 0.0
01/12:30pm 29.3 24.3 -0.9 14 14.1 W 15 22 8 12 1014.2 1014.1 0.0
01/12:00pm 28.7 23.3 -1.4 14 13.9 W 17 28 9 15 1014.5 1014.4 0.0
01/11:30am 28.4 22.6 -1.6 14 13.8 W 19 28 10 15 1014.9 1014.8 0.0
01/11:00am 27.2 22.6 1.6 19 12.3 WSW 15 26 8 14 1015.4 1015.3 0.0
01/10:30am 27.3 23.7 5.0 24 11.4 WSW 13 19 7 10 1015.8 1015.7 0.0
01/10:00am 25.8 22.1 4.3 25 10.8 SSW 13 20 7 11 1016.0 1015.9 0.0
01/09:30am 25.2 21.6 4.9 27 10.2 SSW 13 17 7 9 1016.0 1015.9 0.0
01/09:00am 24.2 19.4 4.6 28 9.8 SSW 19 24 10 13 1016.0 1015.9 0.0
01/08:30am 23.2 20.2 7.7 37 8.1 SSW 13 19 7 10 1016.0 1015.9 0.0
01/08:00am 21.0 18.8 9.3 47 6.2 SSW 11 17 6 9 1015.9 1015.8 0.0
01/07:30am 18.8 17.2 11.6 63 4.0 SSW 11 17 6 9 1015.4 1015.3 0.0
01/07:00am 15.2 16.1 13.9 92 0.7 SSE 2 7 1 4 1015.0 1014.9 0.0
01/06:30am 12.3 12.9 12.0 98 0.2 CALM 0 0 0 0 1014.7 1014.6 0.0
01/06:00am 11.3 11.6 11.0 98 0.2 CALM 0 0 0 0 1014.2 1014.1 0.0
01/05:30am 12.2 12.8 11.9 98 0.2 CALM 0 0 0 0 1013.6 1013.5 0.0
01/05:00am 12.5 12.8 12.2 98 0.2 NE 2 6 1 3 1013.0 1012.9 0.0
01/04:30am 13.1 14.0 12.8 98 0.2 CALM 0 0 0 0 1012.4 1012.3 0.0
01/04:00am 14.0 15.2 13.7 98 0.2 CALM 0 0 0 0 1012.0 1011.9 0.0
01/03:30am 13.7 14.0 13.4 98 0.2 SSE 4 7 2 4 1011.6 1011.5 0.0
01/03:00am 11.7 12.0 10.8 94 0.5 CALM 0 0 0 0 1011.6 1011.5 0.0
01/02:30am 12.0 12.2 10.7 92 0.7 CALM 0 0 0 0 1011.6 1011.5 0.0
01/02:00am 12.5 12.9 11.2 92 0.7 CALM 0 0 0 0 1011.8 1011.7 0.0
01/01:30am 13.1 13.7 11.8 92 0.7 CALM 0 0 0 0 1012.0 1011.9 0.0
01/01:00am 12.8 13.2 11.2 90 0.8 CALM 0 0 0 0 1012.2 1012.1 0.0
01/12:30am 12.9 13.2 11.0 88 1.0 CALM 0 0 0 0 1012.3 1012.2 0.0
01/12:00am 13.5 13.8 11.0 85 1.3 CALM 0 0 0 0 1012.3 1012.2 0.0
 
Date/Time
EST
Temp
°C
App
Temp
°C
Dew
Point
°C
Rel
Hum
%
Delta-T
°C
Wind Press
QNH
hPa
Press
MSL
hPa
Rain since
9am
mm
Dir  Spd
km/h
Gust
km/h
Spd
kts
Gust
kts
30/11:30pm 13.5 13.6 10.3 81 1.7 CALM 0 0 0 0 1012.4 1012.3 0.0
30/11:00pm 14.0 14.1 10.2 78 2.0 CALM 0 0 0 0 1012.5 1012.4 0.0
30/10:30pm 14.6 14.8 10.4 76 2.2 CALM 0 0 0 0 1012.6 1012.5 0.0
30/10:00pm 15.4 15.7 11.0 75 2.3 CALM 0 0 0 0 1012.7 1012.6 0.0
30/09:30pm 15.3 15.4 10.1 71 2.7 CALM 0 0 0 0 1012.6 1012.5 0.0
30/09:00pm 15.6 15.2 9.7 68 3.1 ENE 2 7 1 4 1012.4 1012.3 0.0
30/08:30pm 16.5 16.6 10.1 66 3.4 CALM 0 0 0 0 1012.2 1012.1 0.0
30/08:00pm 17.3 17.3 9.7 61 4.0 CALM 0 0 0 0 1012.0 1011.9 0.0
30/07:30pm 18.2 18.0 9.0 55 4.8 CALM 0 0 0 0 1011.3 1011.2 0.0
30/07:00pm 19.8 19.3 9.4 51 5.5 NE 2 7 1 4 1010.9 1010.8 0.0
30/06:30pm 21.7 21.1 8.9 44 6.8 ENE 2 6 1 3 1010.3 1010.2 0.0
30/06:00pm 23.7 23.2 7.8 36 8.4 CALM 0 0 0 0 1009.9 1009.8 0.0
30/05:30pm 27.5 25.3 6.3 26 11.1 WNW 7 11 4 6 1009.4 1009.3 0.0
30/05:00pm 27.9 24.4 5.5 24 11.6 WNW 13 17 7 9 1009.1 1009.0 0.0
30/04:30pm 28.4 25.0 5.9 24 11.8 WNW 13 22 7 12 1008.9 1008.8 0.0
30/04:00pm 28.4 24.9 5.3 23 12.0 WNW 13 20 7 11 1008.8 1008.7 0.0
30/03:30pm 28.3 24.4 5.2 23 11.9 WSW 15 20 8 11 1008.6 1008.5 0.0
30/03:00pm 28.5 24.9 6.6 25 11.6 W 15 22 8 12 1008.5 1008.4 0.0
30/02:30pm 28.4 24.1 7.1 26 11.4 W 19 30 10 16 1008.7 1008.6 0.0
30/02:00pm 27.7 23.9 7.5 28 10.9 WSW 17 32 9 17 1009.0 1008.9 0.0
30/01:30pm 27.7 23.5 7.5 28 10.8 W 19 32 10 17 1009.4 1009.3 0.0
30/01:00pm 27.1 23.0 8.0 30 10.3 SW 19 28 10 15 1010.0 1009.9 0.0
30/12:30pm 27.1 23.0 8.0 30 10.3 WSW 19 30 10 16 1010.3 1010.2 0.0
30/12:00pm 26.5 22.0 7.0 29 10.3 SSW 20 30 11 16 1010.9 1010.8 0.0
30/11:30am 25.7 21.3 7.3 31 9.7 WSW 20 30 11 16 1011.4 1011.3 0.0
30/11:00am 25.6 21.1 6.8 30 9.8 SW 20 30 11 16 1011.5 1011.4 0.0
30/10:30am 24.6 20.3 6.8 32 9.3 SW 19 30 10 16 1011.9 1011.8 0.0
30/10:00am 24.5 19.8 7.6 34 8.9 SSW 22 30 12 16 1012.0 1011.9 0.0
30/09:30am 23.9 19.2 7.9 36 8.5 SSW 22 30 12 16 1011.9 1011.8 0.0
30/09:00am 23.3 19.4 8.6 39 7.8 SW 19 28 10 15 1012.0 1011.9 0.6
30/08:30am 22.6 19.3 9.7 44 7.0 SW 17 26 9 14 1011.8 1011.7 0.6
30/08:00am 21.7 17.9 11.1 51 5.9 SW 22 32 12 17 1011.5 1011.4 0.6
30/07:30am 22.2 18.5 12.7 55 5.4 SW 24 33 13 18 1010.6 1010.5 0.6
30/07:00am 22.2 21.1 17.8 76 2.7 WSW 20 32 11 17 1010.2 1010.1 0.6
30/06:30am 22.5 25.5 21.3 93 0.8 NW 7 11 4 6 1009.3 1009.2 0.6
30/06:00am 22.2 24.7 21.0 93 0.8 NW 9 11 5 6 1008.8 1008.7 0.6
30/05:30am 22.6 24.8 21.1 91 1.0 NW 11 15 6 8 1008.4 1008.3 0.6
30/05:00am 22.9 24.8 21.4 91 1.0 NW 13 17 7 9 1008.2 1008.1 0.6
30/04:30am 23.2 25.2 21.6 91 1.1 NW 13 20 7 11 1007.9 1007.8 0.6
30/04:00am 23.5 25.4 21.4 88 1.4 NNW 13 20 7 11 1007.5 1007.4 0.6
30/03:30am 23.7 25.4 21.0 85 1.8 NNW 13 19 7 10 1007.7 1007.6 0.6
30/03:00am 23.7 25.2 20.6 83 2.0 NNW 13 20 7 11 1007.6 1007.5 0.6
30/02:30am 23.8 24.9 20.5 82 2.1 NNW 15 24 8 13 1008.0 1007.9 0.6
30/02:00am 23.7 24.9 20.6 83 2.0 NNW 15 22 8 12 1008.1 1008.0 0.6
30/01:30am 23.7 24.3 21.0 85 1.8 NNW 19 32 10 17 1008.5 1008.4 0.6
30/01:00am 23.6 25.3 20.9 85 1.8 N 13 26 7 14 1008.8 1008.7 0.6
30/12:30am 23.7 24.8 21.2 86 1.6 N 17 24 9 13 1009.1 1009.0 0.6
30/12:00am 23.5 25.1 21.4 88 1.4 N 15 24 8 13 1009.4 1009.3 0.6
 
Date/Time
EST
Temp
°C
App
Temp
°C
Dew
Point
°C
Rel
Hum
%
Delta-T
°C
Wind Press
QNH
hPa
Press
MSL
hPa
Rain since
9am
mm
Dir  Spd
km/h
Gust
km/h
Spd
kts
Gust
kts
29/11:30pm 23.9 25.7 21.2 85 1.8 N 13 24 7 13 1009.5 1009.4 0.6
29/11:00pm 23.8 25.3 21.3 86 1.6 N 15 24 8 13 1009.8 1009.7 0.6
29/10:30pm 23.5 25.4 21.4 88 1.4 N 13 20 7 11 1009.9 1009.8 0.6
29/10:00pm 23.4 25.9 21.8 91 1.1 N 11 19 6 10 1010.0 1009.9 0.6
29/09:30pm 23.1 26.2 22.1 94 0.7 N 9 15 5 8 1009.7 1009.6 0.6
29/09:00pm 23.0 25.6 22.0 94 0.7 NNE 11 17 6 9 1009.6 1009.5 0.6
29/08:30pm 22.8 25.3 21.8 94 0.7 NNE 11 17 6 9 1009.3 1009.2 0.6
29/08:00pm 22.9 25.6 21.4 91 1.0 NNE 9 17 5 9 1009.4 1009.3 0.2
29/07:30pm 23.4 25.4 20.7 85 1.8 N 11 20 6 11 1009.0 1008.9 0.0
29/07:00pm 23.6 24.9 20.1 81 2.3 N 13 24 7 13 1008.8 1008.7 0.0
29/06:30pm 23.8 24.6 19.9 79 2.5 N 15 24 8 13 1008.6 1008.5 0.0
29/06:00pm 23.9 24.6 19.6 77 2.8 N 15 24 8 13 1008.2 1008.1 0.0
29/05:30pm 24.1 25.2 19.6 76 2.9 N 13 22 7 12 1007.8 1007.7 0.0
29/05:00pm 24.3 26.0 19.4 74 3.1 N 9 17 5 9 1007.5 1007.4 0.0
29/04:30pm 24.3 24.9 19.4 74 3.1 N 15 26 8 14 1007.3 1007.2 0.0
29/04:00pm 24.6 24.5 18.8 70 3.7 N 17 30 9 16 1007.0 1006.9 0.0
29/03:30pm 25.5 25.9 18.9 67 4.2 N 15 24 8 13 1006.9 1006.8 0.0
29/03:00pm 25.3 24.6 18.2 64 4.5 NNW 19 35 10 19 1007.4 1007.3 0.0
29/02:30pm 24.6 24.0 18.5 69 3.9 N 19 30 10 16 1007.5 1007.4 0.0
29/02:00pm 24.6 25.0 19.0 71 3.6 N 15 24 8 13 1008.0 1007.9 0.0
29/01:30pm 25.0 25.4 19.1 70 3.8 N 15 26 8 14 1008.4 1008.3 0.0
29/01:00pm 25.0 25.4 18.9 69 3.9 N 15 28 8 15 1008.9 1008.8 0.0
29/12:30pm 24.7 24.2 17.9 66 4.3 NNW 17 24 9 13 1009.4 1009.3 0.0
29/12:00pm 24.9 24.2 16.3 59 5.3 NNW 15 30 8 16 1009.6 1009.5 0.0
29/11:30am 25.0 25.1 17.5 63 4.7 N 13 24 7 13 1010.5 1010.4 0.0
29/11:00am 24.9 24.1 16.1 58 5.4 NNW 15 24 8 13 1010.7 1010.6 0.0
29/10:30am 24.9 24.0 16.9 61 4.9 N 17 32 9 17 1011.0 1010.9 0.0
29/10:00am 24.4 23.0 17.1 63 4.5 N 20 30 11 16 1011.2 1011.1 0.0
29/09:30am 24.8 23.3 16.2 58 5.3 N 19 30 10 16 1011.1 1011.0 0.0
29/09:00am 24.9 23.2 16.3 59 5.3 NNW 20 37 11 20 1011.4 1011.3 0.0
29/08:30am 24.4 23.5 16.9 63 4.6 N 17 30 9 16 1011.8 1011.7 0.0
29/08:00am 23.8 23.4 17.1 66 4.1 N 15 24 8 13 1011.5 1011.4 0.0
29/07:30am 23.2 22.2 16.7 67 4.0 N 17 28 9 15 1010.9 1010.8 0.0
29/07:00am 22.3 22.9 16.8 71 3.4 NNE 9 15 5 8 1011.3 1011.2 0.0
29/06:30am 20.5 21.6 16.5 78 2.4 N 6 9 3 5 1011.5 1011.4 0.0
29/06:00am 18.8 20.3 15.7 82 1.8 N 2 7 1 4 1011.3 1011.2 0.0
29/05:30am 18.8 20.6 15.5 81 1.9 CALM 0 0 0 0 1011.4 1011.3 0.0
29/05:00am 18.4 19.9 14.7 79 2.1 CALM 0 0 0 0 1011.1 1011.0 0.0
29/04:30am 18.1 19.5 14.4 79 2.1 CALM 0 0 0 0 1011.4 1011.3 0.0
29/04:00am 17.9 19.1 13.8 77 2.3 CALM 0 0 0 0 1011.3 1011.2 0.0
29/03:30am 17.7 18.9 13.8 78 2.2 CALM 0 0 0 0 1011.0 1010.9 0.0
29/03:00am 17.3 18.4 13.6 79 2.1 CALM 0 0 0 0 1011.3 1011.2 0.0
29/02:30am 17.5 18.6 13.6 78 2.2 CALM 0 0 0 0 1011.8 1011.7 0.0
29/02:00am 17.3 18.6 14.0 81 1.9 CALM 0 0 0 0 1011.7 1011.6 0.0
29/01:30am 16.7 17.8 13.4 81 1.9 CALM 0 0 0 0 1012.0 1011.9 0.0
29/01:00am 16.1 17.0 13.0 82 1.7 CALM 0 0 0 0 1012.1 1012.0 0.0
29/12:30am 15.3 16.2 12.8 85 1.4 CALM 0 0 0 0 1012.5 1012.4 0.0
29/12:00am 15.0 15.7 12.1 83 1.6 CALM 0 0 0 0 1012.9 1012.8 0.0
 
Date/Time
EST
Temp
°C
App
Temp
°C
Dew
Point
°C
Rel
Hum
%
Delta-T
°C
Wind Press
QNH
hPa
Press
MSL
hPa
Rain since
9am
mm
Dir  Spd
km/h
Gust
km/h
Spd
kts
Gust
kts
28/11:30pm 15.7 16.5 12.5 81 1.8 CALM 0 0 0 0 1013.0 1012.9 0.0
28/11:00pm 16.2 17.0 12.4 78 2.1 CALM 0 0 0 0 1013.3 1013.2 0.0
28/10:30pm 16.2 17.0 12.4 78 2.1 CALM 0 0 0 0 1013.2 1013.1 0.0
28/10:00pm 16.5 17.0 11.6 73 2.7 CALM 0 0 0 0 1013.4 1013.3 0.0
28/09:30pm 17.0 17.6 11.9 72 2.8 CALM 0 0 0 0 1013.7 1013.6 0.0
28/09:00pm 17.0 16.3 11.3 69 3.1 NE 6 7 3 4 1013.4 1013.3 0.0
28/08:30pm 18.2 18.7 11.7 66 3.6 CALM 0 0 0 0 1013.7 1013.6 0.0

Other Formats:

Comma delimited format used in spreadsheet applications
http://www.bom.gov.au/fwo/IDQ60801/IDQ60801.95370.axf

JavaScript Object Notation format (JSON) in row-major order
http://www.bom.gov.au/fwo/IDQ60801/IDQ60801.95370.json